createdAt,value
2019-03-12T00:03:52.392Z,2.50
2019-03-12T00:07:59.275Z,2.90
2019-03-12T00:12:06.444Z,3.57
2019-03-12T00:16:13.378Z,3.60
2019-03-12T00:20:20.232Z,2.90
2019-03-12T00:24:27.198Z,2.93
2019-03-12T00:28:34.190Z,3.33
2019-03-12T00:32:41.093Z,3.40
2019-03-12T00:36:47.959Z,4.10
2019-03-12T00:40:54.810Z,2.87
2019-03-12T00:45:01.698Z,2.83
2019-03-12T00:49:08.782Z,3.03
2019-03-12T00:53:15.769Z,3.10
2019-03-12T00:57:22.656Z,2.40
2019-03-12T01:01:29.594Z,2.90
2019-03-12T01:05:36.427Z,3.70
2019-03-12T01:09:43.295Z,3.73
2019-03-12T01:13:51.267Z,3.97
2019-03-12T01:17:58.188Z,3.23
2019-03-12T01:22:05.038Z,3.43
2019-03-12T01:26:11.967Z,3.23
2019-03-12T01:30:19.391Z,3.20
2019-03-12T01:34:26.254Z,2.93
2019-03-12T01:38:33.115Z,3.87
2019-03-12T01:42:39.998Z,3.37
2019-03-12T01:46:46.894Z,2.83
2019-03-12T01:50:54.806Z,3.03
2019-03-12T01:55:01.615Z,3.13
2019-03-12T01:59:08.501Z,3.00
2019-03-12T02:03:15.390Z,3.90
2019-03-12T02:07:22.282Z,2.90
2019-03-12T02:11:29.165Z,2.80
2019-03-12T02:15:36.052Z,3.50
2019-03-12T02:19:42.975Z,3.80
2019-03-12T02:23:50.023Z,4.07
2019-03-12T02:27:57.026Z,3.50
2019-03-12T02:32:04.336Z,3.17
2019-03-12T02:36:11.177Z,3.50
2019-03-12T02:40:18.580Z,4.17
2019-03-12T02:44:25.435Z,3.93
2019-03-12T02:48:32.254Z,4.37
2019-03-12T02:52:39.155Z,3.83
2019-03-12T02:56:45.989Z,4.27
2019-03-12T03:00:52.962Z,4.83
2019-03-12T03:04:59.840Z,5.30
2019-03-12T03:09:08.967Z,5.03
2019-03-12T03:13:16.028Z,4.83
2019-03-12T03:17:22.928Z,4.13
2019-03-12T03:21:29.772Z,4.37
2019-03-12T03:25:36.601Z,4.17
2019-03-12T03:29:43.437Z,5.20
2019-03-12T03:33:50.332Z,4.30
2019-03-12T03:37:57.311Z,3.70
2019-03-12T03:42:04.267Z,3.80
2019-03-12T03:46:11.105Z,3.93
2019-03-12T03:50:18.264Z,3.90
2019-03-12T03:54:25.201Z,3.97
2019-03-12T03:58:33.559Z,3.73
2019-03-12T04:02:40.399Z,3.87
2019-03-12T04:06:47.248Z,4.20
2019-03-12T04:10:54.191Z,3.37
2019-03-12T04:15:01.139Z,3.80
2019-03-12T04:19:08.116Z,3.63
2019-03-12T04:23:16.217Z,4.03
2019-03-12T04:27:23.275Z,4.30
2019-03-12T04:31:30.555Z,4.07
2019-03-12T04:35:37.547Z,3.87
2019-03-12T04:39:44.470Z,3.73
2019-03-12T04:43:51.324Z,3.63
2019-03-12T04:47:58.145Z,3.37
2019-03-12T04:52:05.035Z,3.60
2019-03-12T04:56:11.868Z,3.63
2019-03-12T05:00:19.199Z,4.17
2019-03-12T05:04:26.043Z,3.83
2019-03-12T05:08:32.878Z,3.73
2019-03-12T05:12:39.757Z,3.60
2019-03-12T05:16:46.581Z,4.37
2019-03-12T05:20:53.439Z,3.27
2019-03-12T05:25:00.285Z,4.27
2019-03-12T05:29:07.123Z,3.67
2019-03-12T05:33:13.976Z,4.30
2019-03-12T05:37:20.823Z,3.47
2019-03-12T05:41:27.711Z,3.73
2019-03-12T05:45:34.606Z,3.77
2019-03-12T05:49:41.414Z,3.83
2019-03-12T05:53:49.853Z,3.80
2019-03-12T05:57:56.697Z,4.03
2019-03-12T06:02:03.693Z,4.97
2019-03-12T06:06:11.164Z,5.00
2019-03-12T06:10:18.306Z,3.87
2019-03-12T06:14:27.055Z,4.40
2019-03-12T06:18:35.642Z,5.50
2019-03-12T06:22:42.542Z,10.80
2019-03-12T06:26:49.368Z,4.87
2019-03-12T06:31:15.124Z,4.57
2019-03-12T06:35:37.060Z,5.27
2019-03-12T06:40:05.760Z,4.90
2019-03-12T06:44:23.569Z,4.83
2019-03-12T06:48:43.806Z,4.83
2019-03-12T06:53:09.541Z,5.20
2019-03-12T06:57:38.042Z,7.30
2019-03-12T07:02:02.299Z,6.50
2019-03-12T07:06:26.636Z,6.03
2019-03-12T07:10:44.675Z,6.10
2019-03-12T07:15:08.995Z,6.37
2019-03-12T07:19:34.746Z,6.40
2019-03-12T07:24:01.980Z,7.23
2019-03-12T07:28:18.785Z,5.30
2019-03-12T07:32:43.407Z,4.33
2019-03-12T07:37:27.299Z,4.83
2019-03-12T07:41:46.494Z,5.73
2019-03-12T07:46:11.196Z,4.47
2019-03-12T07:50:37.012Z,4.83
2019-03-12T07:55:02.768Z,4.80
2019-03-12T07:59:28.486Z,4.33
2019-03-12T08:03:54.224Z,4.03
2019-03-12T08:08:17.063Z,4.80
2019-03-12T08:12:52.210Z,3.97
2019-03-12T08:17:16.539Z,4.20
2019-03-12T08:21:49.555Z,4.67
2019-03-12T08:26:15.559Z,4.20
2019-03-12T08:30:32.201Z,4.37
2019-03-12T08:34:56.590Z,4.00
2019-03-12T08:39:28.528Z,4.67
2019-03-12T08:43:43.951Z,4.10
2019-03-12T08:48:13.139Z,4.30
2019-03-12T08:52:42.062Z,3.83
2019-03-12T08:57:20.184Z,4.10
2019-03-12T09:01:49.730Z,5.07
2019-03-12T09:06:27.752Z,4.23
2019-03-12T09:10:43.753Z,4.40
2019-03-12T09:15:30.118Z,4.20
2019-03-12T09:19:59.821Z,4.90
2019-03-12T09:24:25.578Z,4.27
2019-03-12T09:28:43.370Z,3.53
2019-03-12T09:32:59.884Z,3.77
2019-03-12T09:37:30.714Z,4.00
2019-03-12T09:41:56.446Z,3.77
2019-03-12T09:46:09.264Z,3.83
2019-03-12T09:50:29.814Z,3.33
2019-03-12T09:55:05.078Z,3.80
2019-03-12T09:59:26.023Z,3.20
2019-03-12T10:03:39.152Z,3.57
2019-03-12T10:08:17.103Z,3.90
2019-03-12T10:12:45.935Z,3.03
2019-03-12T10:17:03.983Z,3.87
2019-03-12T10:21:32.482Z,3.73
2019-03-12T10:25:58.348Z,3.53
2019-03-12T10:30:16.573Z,4.20
2019-03-12T10:34:45.183Z,3.60
2019-03-12T10:40:07.369Z,3.40
2019-03-12T10:44:32.643Z,3.40
2019-03-12T10:48:40.349Z,3.43
2019-03-12T10:52:47.304Z,4.27
2019-03-12T10:56:54.097Z,3.47
2019-03-12T11:01:00.922Z,3.30
2019-03-12T11:05:08.955Z,3.67
2019-03-12T11:09:15.952Z,4.00
2019-03-12T11:13:23.296Z,3.13
2019-03-12T11:17:30.244Z,3.10
2019-03-12T11:21:37.159Z,3.20
2019-03-12T11:25:44.103Z,3.00
2019-03-12T11:29:51.000Z,3.40
2019-03-12T11:33:58.978Z,3.60
2019-03-12T11:38:06.023Z,3.70
2019-03-12T11:42:13.047Z,3.00
2019-03-12T11:46:20.149Z,3.60
2019-03-12T11:50:27.063Z,4.20
2019-03-12T11:54:33.973Z,3.33
2019-03-12T11:58:40.829Z,3.80
2019-03-12T12:02:59.247Z,4.03
2019-03-12T12:06:56.455Z,3.80
2019-03-12T12:11:03.343Z,3.60
2019-03-12T12:15:12.071Z,3.40
2019-03-12T12:19:19.030Z,3.33
2019-03-12T12:23:25.882Z,3.70
2019-03-12T12:27:34.122Z,3.37
2019-03-12T12:31:41.031Z,3.27
2019-03-12T12:35:47.868Z,3.67
2019-03-12T12:39:54.851Z,3.80
2019-03-12T12:44:02.813Z,3.80
2019-03-12T12:48:09.857Z,3.57
2019-03-12T12:52:16.771Z,4.10
2019-03-12T12:56:23.707Z,2.70
2019-03-12T13:00:30.796Z,3.20
2019-03-12T13:04:37.655Z,3.43
2019-03-12T13:08:46.287Z,3.80
2019-03-12T13:12:53.221Z,3.20
2019-03-12T13:17:01.846Z,4.07
2019-03-12T13:21:08.769Z,3.40
2019-03-12T13:25:16.127Z,3.60
2019-03-12T13:29:23.015Z,3.87
2019-03-12T13:33:30.026Z,3.83
2019-03-12T13:37:36.984Z,4.13
2019-03-12T13:41:43.895Z,3.20
2019-03-12T13:45:50.744Z,2.73
2019-03-12T13:49:57.717Z,3.30
2019-03-12T13:54:04.796Z,3.83
2019-03-12T13:58:13.093Z,3.47
2019-03-12T14:02:20.089Z,2.77
2019-03-12T14:06:27.128Z,3.90
2019-03-12T14:10:34.060Z,3.13
2019-03-12T14:14:41.047Z,3.30
2019-03-12T14:18:47.979Z,3.17
2019-03-12T14:22:54.840Z,3.10
2019-03-12T14:27:01.805Z,2.63
2019-03-12T14:31:20.720Z,3.77
2019-03-12T14:35:27.748Z,3.70
2019-03-12T14:39:34.671Z,4.27
2019-03-12T14:43:41.635Z,3.63
2019-03-12T14:47:48.646Z,5.40
2019-03-12T14:52:31.682Z,3.27
2019-03-12T14:56:38.602Z,3.10
2019-03-12T15:00:45.603Z,2.70
2019-03-12T15:04:53.613Z,2.60
2019-03-12T15:09:01.898Z,2.57
2019-03-12T15:13:10.420Z,2.80
2019-03-12T15:17:17.298Z,2.67
2019-03-12T15:21:25.435Z,2.70
2019-03-12T15:25:33.513Z,2.30
2019-03-12T15:29:40.588Z,2.77
2019-03-12T15:33:47.496Z,2.77
2019-03-12T15:37:54.442Z,2.77
2019-03-12T15:42:01.548Z,2.00
2019-03-12T15:46:08.831Z,2.03
2019-03-12T15:50:18.834Z,2.13
2019-03-12T15:54:24.516Z,2.27
2019-03-12T15:58:31.598Z,2.43
2019-03-12T16:02:38.921Z,2.30
2019-03-12T16:06:45.915Z,2.30
2019-03-12T16:10:58.387Z,2.03
2019-03-12T16:15:04.318Z,2.20
2019-03-12T16:19:11.556Z,2.73
2019-03-12T16:23:18.575Z,2.10
2019-03-12T16:27:27.473Z,2.07
2019-03-12T16:31:34.613Z,2.57
2019-03-12T16:35:41.522Z,2.20
2019-03-12T16:39:48.561Z,1.97
2019-03-12T16:43:55.434Z,2.13
2019-03-12T16:48:02.379Z,2.00
2019-03-12T16:52:09.441Z,1.80
2019-03-12T16:56:20.733Z,1.80
2019-03-12T17:00:27.850Z,2.10
2019-03-12T17:04:35.307Z,2.53
2019-03-12T17:08:42.623Z,1.90
2019-03-12T17:12:50.072Z,2.40
2019-03-12T17:16:58.339Z,2.13
2019-03-12T17:21:05.535Z,2.23
2019-03-12T17:25:18.672Z,2.40
2019-03-12T17:29:25.968Z,2.63
2019-03-12T17:33:33.198Z,2.70
2019-03-12T17:37:42.569Z,2.90
2019-03-12T17:41:49.841Z,2.23
2019-03-12T17:45:57.363Z,2.13
2019-03-12T17:50:08.510Z,3.33
2019-03-12T17:54:15.502Z,2.73
2019-03-12T17:58:23.361Z,2.23
2019-03-12T18:02:42.120Z,2.70
2019-03-12T18:06:40.804Z,2.23
2019-03-12T18:10:48.287Z,2.40
2019-03-12T18:14:55.176Z,2.17
2019-03-12T18:19:02.258Z,2.87
2019-03-12T18:23:09.234Z,2.73
2019-03-12T18:27:16.384Z,2.20
2019-03-12T18:31:23.880Z,2.33
2019-03-12T18:35:31.361Z,1.97
2019-03-12T18:39:38.744Z,1.87
2019-03-12T18:43:46.810Z,2.10
2019-03-12T18:47:54.168Z,2.43
2019-03-12T18:52:01.502Z,2.90
2019-03-12T18:56:10.518Z,2.17
2019-03-12T19:00:20.055Z,2.17
2019-03-12T19:04:28.002Z,2.30
2019-03-12T19:08:35.482Z,2.10
2019-03-12T19:12:42.459Z,2.17
2019-03-12T19:16:49.765Z,2.40
2019-03-12T19:20:58.573Z,2.20
2019-03-12T19:25:08.427Z,2.43
2019-03-12T19:29:20.741Z,2.20
2019-03-12T19:33:28.290Z,3.10
2019-03-12T19:37:36.060Z,2.30
2019-03-12T19:41:43.852Z,2.43
2019-03-12T19:45:53.907Z,2.50
2019-03-12T19:50:01.849Z,2.17
2019-03-12T19:54:11.939Z,3.07
2019-03-12T19:58:19.429Z,2.00
2019-03-12T20:02:31.594Z,2.23
2019-03-12T20:06:39.314Z,2.13
2019-03-12T20:11:31.513Z,1.97
2019-03-12T20:17:10.477Z,2.20
2019-03-12T20:22:21.170Z,2.40
2019-03-12T20:27:25.215Z,2.00
2019-03-12T20:32:37.799Z,2.03
2019-03-12T20:37:58.381Z,2.40
2019-03-12T20:43:06.194Z,2.30
2019-03-12T20:48:14.177Z,2.93
2019-03-12T20:53:44.565Z,2.03
2019-03-12T20:58:54.653Z,2.70
2019-03-12T21:03:54.063Z,3.00
2019-03-12T21:09:40.866Z,2.67
2019-03-12T21:14:59.173Z,2.10
2019-03-12T21:20:28.319Z,2.37
2019-03-12T21:25:40.975Z,2.53
2019-03-12T21:29:52.848Z,2.37
2019-03-12T21:33:59.996Z,2.07
2019-03-12T21:38:10.248Z,2.53
2019-03-12T21:42:17.695Z,2.00
2019-03-12T21:46:25.536Z,2.17
2019-03-12T21:50:33.136Z,2.60
2019-03-12T21:54:42.455Z,2.07
2019-03-12T21:58:49.756Z,2.40
2019-03-12T22:02:57.922Z,2.20
2019-03-12T22:07:05.066Z,2.40
2019-03-12T22:11:12.057Z,2.00
2019-03-12T22:15:19.218Z,2.10
2019-03-12T22:19:26.162Z,2.10
2019-03-12T22:23:45.977Z,5.47
2019-03-12T22:27:53.058Z,3.57
2019-03-12T22:32:00.150Z,2.20
2019-03-12T22:36:08.131Z,2.47
2019-03-12T22:40:15.476Z,2.30
2019-03-12T22:44:22.362Z,2.07
2019-03-12T22:48:29.351Z,2.70
2019-03-12T22:52:36.347Z,2.50
2019-03-12T22:56:43.565Z,2.00
2019-03-12T23:00:52.888Z,2.20
2019-03-12T23:05:17.985Z,1.93
2019-03-12T23:09:43.014Z,2.60
2019-03-12T23:13:51.690Z,2.40
2019-03-12T23:18:00.253Z,1.90
2019-03-12T23:22:07.755Z,2.60
2019-03-12T23:26:14.765Z,2.17
2019-03-12T23:30:22.188Z,2.63
2019-03-12T23:34:29.242Z,1.83
2019-03-12T23:38:37.231Z,2.20
2019-03-12T23:42:44.214Z,2.10
2019-03-12T23:46:51.089Z,1.50
2019-03-12T23:50:57.951Z,1.40
2019-03-12T23:55:05.461Z,1.40
2019-03-12T23:59:12.328Z,1.70
